Time;durP1;ratioP1;P1;durP2;ratioP2;P2;SDS_P1;SDS_P2;PMS_P1;PMS_P2;Temp;Humidity;BMP_temperature;BMP_pressure;BME280_temperature;BME280_humidity;BME280_pressure;Samples;Min_cycle;Max_cycle;Signal;HPM_P1;HPM_P2
2023/07/28 00:02:11;;;;;;;27.40;5.75;;;18.30;99.90;;;;;;5111243;27;20095;-80
2023/07/28 00:04:37;;;;;;;26.58;6.28;;;18.30;99.90;;;;;;5084621;27;20043;-80
2023/07/28 00:07:06;;;;;;;24.63;5.85;;;18.30;99.90;;;;;;5128715;27;21038;-79
2023/07/28 00:09:32;;;;;;;20.10;6.05;;;18.30;99.90;;;;;;5090821;27;20753;-85
2023/07/28 00:11:59;;;;;;;24.70;6.25;;;18.30;99.90;;;;;;5109389;27;20104;-78
2023/07/28 00:14:25;;;;;;;22.50;6.30;;;18.20;99.90;;;;;;5115026;27;20045;-80
2023/07/28 00:16:52;;;;;;;21.55;6.07;;;18.20;99.90;;;;;;5117661;27;20030;-81
2023/07/28 00:19:20;;;;;;;19.30;5.68;;;18.20;99.90;;;;;;5100963;27;20123;-78
2023/07/28 00:21:51;;;;;;;22.13;5.60;;;18.30;99.90;;;;;;5100532;27;20088;-79
2023/07/28 00:24:17;;;;;;;20.00;6.97;;;18.20;99.90;;;;;;5113913;27;20039;-79
2023/07/28 00:26:44;;;;;;;19.40;6.20;;;18.30;99.90;;;;;;5082794;27;20043;-84
2023/07/28 00:29:10;;;;;;;24.90;5.82;;;18.20;99.90;;;;;;5118826;27;20104;-82
2023/07/28 00:31:36;;;;;;;24.23;5.55;;;18.30;99.90;;;;;;5111043;27;20050;-82
2023/07/28 00:34:02;;;;;;;19.67;5.63;;;18.20;99.90;;;;;;5090554;27;20366;-80
2023/07/28 00:36:28;;;;;;;25.00;6.10;;;18.20;99.90;;;;;;5110080;27;20074;-79
2023/07/28 00:38:54;;;;;;;29.67;6.25;;;18.20;99.90;;;;;;5109462;27;20050;-80
2023/07/28 00:41:20;;;;;;;20.80;5.40;;;18.20;99.90;;;;;;5112122;27;20050;-81
2023/07/28 00:43:46;;;;;;;29.70;6.00;;;18.20;99.90;;;;;;5115135;27;20123;-81
2023/07/28 00:46:13;;;;;;;19.75;6.15;;;18.20;99.90;;;;;;5098650;27;20725;-81
2023/07/28 00:48:40;;;;;;;19.23;6.18;;;18.20;99.90;;;;;;5113231;27;20035;-80
2023/07/28 00:51:08;;;;;;;24.75;6.55;;;18.20;99.90;;;;;;5109685;27;20058;-83
2023/07/28 00:53:34;;;;;;;22.73;4.75;;;18.20;99.90;;;;;;5111210;27;20046;-79
2023/07/28 00:56:01;;;;;;;28.48;6.10;;;18.20;99.90;;;;;;5084832;27;20051;-84
2023/07/28 00:58:27;;;;;;;19.58;5.50;;;18.20;99.90;;;;;;5097634;27;20046;-79
2023/07/28 01:00:53;;;;;;;26.00;6.07;;;18.20;99.90;;;;;;5101113;27;20035;-80
2023/07/28 01:03:20;;;;;;;22.33;5.97;;;18.20;99.90;;;;;;5100560;27;20047;-79
2023/07/28 01:06:14;;;;;;;19.73;5.82;;;18.20;99.90;;;;;;5110464;27;20054;-81
2023/07/28 01:08:56;;;;;;;19.45;5.30;;;18.20;99.90;;;;;;5113849;27;20054;-84
2023/07/28 01:11:22;;;;;;;25.05;6.15;;;18.20;99.90;;;;;;5100388;27;20050;-80
2023/07/28 01:13:48;;;;;;;18.35;5.40;;;18.20;99.90;;;;;;5110823;27;20106;-79
2023/07/28 01:16:14;;;;;;;20.00;5.60;;;18.20;99.90;;;;;;5106284;27;20364;-79
2023/07/28 01:18:40;;;;;;;23.25;5.80;;;18.20;99.90;;;;;;5100278;27;20046;-79
2023/07/28 01:21:12;;;;;;;18.70;5.47;;;18.20;99.90;;;;;;5130034;27;20684;-83
2023/07/28 01:23:58;;;;;;;16.08;5.45;;;18.20;99.90;;;;;;5108347;27;20426;-80
2023/07/28 01:26:37;;;;;;;26.48;5.80;;;18.20;99.90;;;;;;5112060;27;20144;-79
2023/07/28 01:29:07;;;;;;;15.15;5.50;;;18.20;99.90;;;;;;5106105;27;20039;-80
2023/07/28 01:31:32;;;;;;;20.13;5.88;;;18.20;99.90;;;;;;5094483;27;20091;-80
2023/07/28 01:33:58;;;;;;;18.88;5.53;;;18.20;99.90;;;;;;5092065;27;20034;-82
2023/07/28 01:36:24;;;;;;;16.55;5.10;;;18.20;99.90;;;;;;5096815;27;20107;-80
2023/07/28 01:38:50;;;;;;;15.15;5.03;;;18.20;99.90;;;;;;5110588;27;20701;-79
2023/07/28 01:41:15;;;;;;;19.52;4.95;;;18.20;99.90;;;;;;5102774;27;20057;-82
2023/07/28 01:43:44;;;;;;;20.65;5.18;;;18.20;99.90;;;;;;5090768;27;20050;-83
2023/07/28 01:46:10;;;;;;;16.05;5.28;;;18.20;99.90;;;;;;5066181;27;20072;-79
2023/07/28 01:48:36;;;;;;;18.80;4.72;;;18.20;99.90;;;;;;5109207;27;20035;-80
2023/07/28 01:51:02;;;;;;;16.08;4.75;;;18.20;99.90;;;;;;5109656;27;20035;-80
2023/07/28 01:53:27;;;;;;;18.98;5.25;;;18.20;99.90;;;;;;5117425;27;20106;-82
2023/07/28 01:55:53;;;;;;;19.42;5.40;;;18.10;99.90;;;;;;5086720;27;20118;-79
2023/07/28 01:58:19;;;;;;;19.90;4.90;;;18.10;99.90;;;;;;5133466;27;20380;-80
2023/07/28 02:00:46;;;;;;;20.27;4.80;;;18.10;99.90;;;;;;5128873;27;20058;-84
2023/07/28 02:03:12;;;;;;;17.95;5.03;;;18.20;99.90;;;;;;5133292;27;20079;-81
2023/07/28 02:05:37;;;;;;;18.70;4.75;;;18.20;99.90;;;;;;5114515;27;20047;-83
2023/07/28 02:08:03;;;;;;;14.50;4.85;;;18.10;99.90;;;;;;5113211;27;20385;-80
2023/07/28 02:10:29;;;;;;;17.60;4.90;;;18.20;99.90;;;;;;5092755;27;20050;-81
2023/07/28 02:12:55;;;;;;;13.00;4.93;;;18.10;99.90;;;;;;5110987;27;20046;-80
2023/07/28 02:15:21;;;;;;;16.10;4.40;;;18.10;99.90;;;;;;5107757;27;20070;-84
2023/07/28 02:17:46;;;;;;;16.60;5.20;;;18.10;99.90;;;;;;5095975;27;20043;-80
2023/07/28 02:20:15;;;;;;;17.42;4.25;;;18.10;99.90;;;;;;5106599;27;20050;-83
2023/07/28 02:22:45;;;;;;;16.27;4.13;;;18.10;99.90;;;;;;5077969;27;20047;-82
2023/07/28 02:25:11;;;;;;;14.68;4.20;;;18.10;99.90;;;;;;5119787;27;20047;-80
2023/07/28 02:27:40;;;;;;;16.25;4.90;;;18.10;99.90;;;;;;5106024;27;20043;-82
2023/07/28 02:30:06;;;;;;;13.05;3.85;;;18.10;99.90;;;;;;5095879;27;20050;-80
2023/07/28 02:32:32;;;;;;;13.00;4.00;;;18.10;99.90;;;;;;5113372;27;20508;-80
2023/07/28 02:34:58;;;;;;;14.02;4.38;;;18.10;99.90;;;;;;5107910;27;20042;-85
2023/07/28 02:37:25;;;;;;;11.30;4.05;;;18.10;99.90;;;;;;5078126;27;20260;-83
2023/07/28 02:39:51;;;;;;;8.75;3.28;;;18.10;99.90;;;;;;5104650;27;20066;-82
2023/07/28 02:42:16;;;;;;;15.52;3.90;;;18.10;99.90;;;;;;5104525;27;20130;-82
2023/07/28 02:44:48;;;;;;;17.30;4.00;;;18.10;99.90;;;;;;5101155;27;20107;-80
2023/07/28 02:47:14;;;;;;;9.07;3.72;;;18.10;99.90;;;;;;5108051;27;20134;-83
2023/07/28 02:49:41;;;;;;;13.27;3.97;;;18.20;99.90;;;;;;5099803;27;20742;-81
2023/07/28 02:52:07;;;;;;;13.85;4.20;;;18.20;99.90;;;;;;5107304;27;20774;-81
2023/07/28 02:54:33;;;;;;;10.57;3.38;;;18.20;99.90;;;;;;5108982;27;20494;-81
2023/07/28 02:56:58;;;;;;;9.45;3.75;;;18.20;99.90;;;;;;5128929;27;20049;-82
2023/07/28 02:59:24;;;;;;;11.35;3.60;;;18.20;99.90;;;;;;5113888;27;20493;-84
2023/07/28 03:01:51;;;;;;;8.90;3.70;;;18.20;99.90;;;;;;5108424;27;20058;-86
2023/07/28 03:04:20;;;;;;;7.40;3.03;;;18.20;99.90;;;;;;5108152;27;20091;-84
2023/07/28 03:06:47;;;;;;;11.95;3.28;;;18.20;99.90;;;;;;5111149;27;20112;-82
2023/07/28 03:09:13;;;;;;;7.45;3.00;;;18.20;99.90;;;;;;5112495;27;20163;-86
2023/07/28 03:11:39;;;;;;;7.88;3.20;;;18.20;99.90;;;;;;5083371;27;20038;-82
2023/07/28 03:14:04;;;;;;;10.98;3.30;;;18.20;99.90;;;;;;5089460;27;20084;-83
2023/07/28 03:16:30;;;;;;;7.85;2.97;;;18.20;99.90;;;;;;5105720;27;20358;-81
2023/07/28 03:18:56;;;;;;;12.45;3.55;;;18.20;99.90;;;;;;5105328;27;20113;-80
2023/07/28 03:21:21;;;;;;;10.18;3.58;;;18.20;99.90;;;;;;5081398;27;20039;-81
2023/07/28 03:23:47;;;;;;;8.07;3.30;;;18.20;99.90;;;;;;5110758;27;20451;-80
2023/07/28 03:26:13;;;;;;;9.93;3.58;;;18.20;99.90;;;;;;5064135;27;20078;-84
2023/07/28 03:28:39;;;;;;;13.07;4.07;;;18.20;99.90;;;;;;5104795;27;21015;-81
2023/07/28 03:31:05;;;;;;;13.82;4.18;;;18.20;99.90;;;;;;5081431;27;20167;-82
2023/07/28 03:33:31;;;;;;;13.57;3.90;;;18.20;99.90;;;;;;5092784;27;20047;-81
2023/07/28 03:35:57;;;;;;;9.80;3.60;;;18.20;99.90;;;;;;5094626;27;20050;-80
2023/07/28 03:38:24;;;;;;;13.82;4.00;;;18.20;99.90;;;;;;5110598;27;20072;-80
2023/07/28 03:40:51;;;;;;;13.82;4.22;;;18.20;99.90;;;;;;5088655;27;20159;-80
2023/07/28 03:43:16;;;;;;;9.50;4.25;;;18.20;99.90;;;;;;5102915;27;20035;-81
2023/07/28 03:45:42;;;;;;;8.77;3.80;;;18.10;99.90;;;;;;5092136;27;20127;-82
2023/07/28 03:48:08;;;;;;;9.40;4.15;;;18.10;99.90;;;;;;5106815;27;20050;-86
2023/07/28 03:50:34;;;;;;;5.50;4.13;;;18.10;99.90;;;;;;5094574;27;20641;-84
2023/07/28 03:52:59;;;;;;;10.02;3.60;;;18.10;99.90;;;;;;5095912;27;20684;-83
2023/07/28 03:55:25;;;;;;;8.30;4.38;;;18.10;99.90;;;;;;5109677;27;20047;-83
2023/07/28 03:57:51;;;;;;;7.07;4.32;;;18.10;99.90;;;;;;5113103;27;20042;-80
2023/07/28 04:00:17;;;;;;;11.85;5.53;;;18.10;99.90;;;;;;5098941;27;20099;-83
2023/07/28 04:02:42;;;;;;;13.85;6.13;;;18.10;99.90;;;;;;5096535;27;20042;-82
2023/07/28 04:05:08;;;;;;;11.23;5.57;;;18.10;99.90;;;;;;5107901;27;20038;-81
2023/07/28 04:07:34;;;;;;;11.48;6.00;;;18.00;99.90;;;;;;5105801;27;20414;-82
2023/07/28 04:10:01;;;;;;;10.07;5.40;;;18.00;99.90;;;;;;5092996;27;20049;-85
2023/07/28 04:12:26;;;;;;;15.43;7.13;;;18.00;99.90;;;;;;5127548;27;20047;-79
2023/07/28 04:14:52;;;;;;;8.98;6.22;;;18.00;99.90;;;;;;5107151;27;20062;-82
2023/07/28 04:17:18;;;;;;;14.15;6.93;;;18.00;99.90;;;;;;5110380;27;20062;-83
2023/07/28 04:19:43;;;;;;;12.75;6.75;;;18.00;99.90;;;;;;5109424;27;20046;-83
2023/07/28 04:22:09;;;;;;;9.38;6.70;;;18.00;99.90;;;;;;5113019;27;20673;-81
2023/07/28 04:24:35;;;;;;;10.43;6.78;;;18.00;99.90;;;;;;5092584;27;20047;-84
2023/07/28 04:27:01;;;;;;;7.78;6.43;;;18.00;99.90;;;;;;5108293;27;20039;-81
2023/07/28 04:29:27;;;;;;;10.90;7.40;;;18.00;99.90;;;;;;5084411;27;20750;-84
2023/07/28 04:31:53;;;;;;;11.00;7.32;;;18.00;99.90;;;;;;5061603;27;20047;-80
2023/07/28 04:34:21;;;;;;;11.25;7.82;;;18.00;99.90;;;;;;5126518;27;20407;-83
2023/07/28 04:36:47;;;;;;;13.75;8.20;;;18.00;99.90;;;;;;5106604;27;20043;-81
2023/07/28 04:39:13;;;;;;;12.93;8.00;;;17.90;99.90;;;;;;5090886;27;20584;-82
2023/07/28 04:41:39;;;;;;;12.13;7.78;;;17.90;99.90;;;;;;5093817;27;20050;-82
2023/07/28 04:44:05;;;;;;;9.43;7.88;;;17.90;99.90;;;;;;5107464;27;20050;-81
2023/07/28 04:46:31;;;;;;;13.07;8.10;;;17.90;99.90;;;;;;5081235;27;20050;-81
2023/07/28 04:48:57;;;;;;;11.32;8.10;;;17.90;99.90;;;;;;5113339;27;20144;-84
2023/07/28 04:51:22;;;;;;;12.13;8.95;;;17.90;99.90;;;;;;5105955;27;20063;-81
2023/07/28 04:53:49;;;;;;;11.40;8.25;;;17.90;99.90;;;;;;5092828;27;20067;-80
2023/07/28 04:56:15;;;;;;;11.50;8.25;;;17.90;99.90;;;;;;5092413;27;20077;-83
2023/07/28 04:58:41;;;;;;;13.65;9.10;;;17.90;99.90;;;;;;5111634;27;20138;-82
2023/07/28 05:01:08;;;;;;;11.98;8.77;;;17.90;99.90;;;;;;5112241;27;20054;-80
2023/07/28 05:03:34;;;;;;;10.95;8.35;;;17.90;99.90;;;;;;5077492;27;20076;-83
2023/07/28 05:06:00;;;;;;;12.50;9.10;;;17.80;99.90;;;;;;5110681;27;20051;-83
2023/07/28 05:08:26;;;;;;;13.75;9.82;;;17.90;99.90;;;;;;5092439;27;20038;-81
2023/07/28 05:10:51;;;;;;;11.35;10.15;;;17.90;99.90;;;;;;5110062;27;20058;-82
2023/07/28 05:13:17;;;;;;;13.93;10.35;;;17.90;99.90;;;;;;5090552;27;20211;-84
2023/07/28 05:15:43;;;;;;;14.02;10.38;;;17.90;99.90;;;;;;5088516;27;20222;-82
2023/07/28 05:18:08;;;;;;;15.00;11.55;;;17.90;99.90;;;;;;5105096;27;20054;-84
2023/07/28 05:20:34;;;;;;;15.57;11.95;;;17.90;99.90;;;;;;5093040;27;20517;-88
2023/07/28 05:23:00;;;;;;;16.42;11.88;;;17.90;99.90;;;;;;5103416;27;20084;-83
2023/07/28 05:25:25;;;;;;;14.50;12.38;;;17.90;99.90;;;;;;5075482;27;20550;-89
2023/07/28 05:27:51;;;;;;;16.15;11.40;;;17.90;99.90;;;;;;5107906;27;20042;-90
2023/07/28 05:30:17;;;;;;;15.25;11.52;;;17.90;99.90;;;;;;5110139;27;20047;-84
2023/07/28 05:32:43;;;;;;;15.23;11.73;;;17.90;99.90;;;;;;5106308;27;20078;-85
2023/07/28 05:35:09;;;;;;;15.10;11.73;;;17.90;99.90;;;;;;5109499;27;20080;-86
2023/07/28 05:37:34;;;;;;;14.68;12.18;;;17.90;99.90;;;;;;5111345;27;20534;-86
2023/07/28 05:40:00;;;;;;;15.05;11.45;;;17.90;99.90;;;;;;5093048;27;20053;-85
2023/07/28 05:42:26;;;;;;;14.43;11.38;;;17.80;99.90;;;;;;5114159;27;20046;-87
2023/07/28 05:44:53;;;;;;;14.98;11.38;;;17.80;99.90;;;;;;5111232;27;20074;-85
2023/07/28 05:47:20;;;;;;;14.00;11.57;;;17.80;99.90;;;;;;5130289;27;20049;-86
2023/07/28 05:49:46;;;;;;;16.40;12.50;;;17.80;99.90;;;;;;5095762;27;20042;-90
2023/07/28 05:52:12;;;;;;;15.15;12.18;;;17.80;99.90;;;;;;5115599;27;20043;-87
2023/07/28 05:54:39;;;;;;;16.35;12.35;;;17.90;99.90;;;;;;5092879;27;20046;-88
2023/07/28 05:57:05;;;;;;;14.90;12.23;;;17.90;99.90;;;;;;5109110;27;20043;-83
2023/07/28 05:59:31;;;;;;;14.68;12.07;;;17.90;99.90;;;;;;5108979;27;20058;-89
2023/07/28 06:01:57;;;;;;;15.63;12.68;;;17.90;99.90;;;;;;5110060;27;20570;-89
2023/07/28 06:04:22;;;;;;;14.45;12.23;;;17.90;99.90;;;;;;5115223;27;20523;-87
2023/07/28 06:06:48;;;;;;;13.90;11.85;;;17.90;99.90;;;;;;5113366;27;21221;-86
2023/07/28 06:09:14;;;;;;;14.55;11.50;;;18.00;99.90;;;;;;5061731;27;20176;-86
2023/07/28 06:11:40;;;;;;;13.60;11.00;;;17.90;99.90;;;;;;5108120;27;21217;-77
2023/07/28 06:14:05;;;;;;;13.50;11.00;;;18.00;99.90;;;;;;5112846;27;20083;-83
2023/07/28 06:16:31;;;;;;;13.25;10.70;;;18.00;99.90;;;;;;5108734;27;20058;-84
2023/07/28 06:18:57;;;;;;;13.55;10.60;;;18.10;99.90;;;;;;5091767;27;20059;-83
2023/07/28 06:21:23;;;;;;;12.00;10.45;;;18.00;99.90;;;;;;5108957;27;20046;-83
2023/07/28 06:23:49;;;;;;;13.05;10.77;;;18.00;99.90;;;;;;5107713;27;20041;-84
2023/07/28 06:26:15;;;;;;;14.52;10.38;;;18.00;99.90;;;;;;5105860;27;20121;-81
2023/07/28 06:28:41;;;;;;;13.55;10.52;;;18.00;99.90;;;;;;5094320;27;20045;-82
2023/07/28 06:31:06;;;;;;;10.02;8.93;;;18.10;99.90;;;;;;5090969;27;20515;-83
2023/07/28 06:33:32;;;;;;;9.90;8.82;;;18.20;99.90;;;;;;5107915;27;20050;-83
2023/07/28 06:35:58;;;;;;;9.27;8.32;;;18.10;99.90;;;;;;5108969;27;20039;-85
2023/07/28 06:38:24;;;;;;;10.40;8.77;;;18.10;99.90;;;;;;5100033;27;20554;-82
2023/07/28 06:40:49;;;;;;;10.40;8.93;;;18.20;99.90;;;;;;5091509;27;20246;-82
2023/07/28 06:43:15;;;;;;;11.70;9.48;;;18.10;99.90;;;;;;5109030;27;20118;-81
2023/07/28 06:45:41;;;;;;;10.88;9.80;;;18.10;99.90;;;;;;5093056;27;20389;-83
2023/07/28 06:48:07;;;;;;;11.80;8.95;;;18.20;99.90;;;;;;5089839;27;20047;-82
2023/07/28 06:50:32;;;;;;;10.68;8.15;;;18.20;99.90;;;;;;5108261;27;20061;-83
2023/07/28 06:52:58;;;;;;;12.02;8.50;;;18.30;99.90;;;;;;5094140;27;20058;-82
2023/07/28 06:55:24;;;;;;;9.55;8.00;;;18.30;99.90;;;;;;5078637;27;20058;-83
2023/07/28 06:57:50;;;;;;;8.95;8.05;;;18.30;99.90;;;;;;5108259;27;20139;-82
2023/07/28 07:00:17;;;;;;;9.52;6.90;;;18.30;99.90;;;;;;5123773;27;20175;-82
2023/07/28 07:02:44;;;;;;;9.13;8.23;;;18.30;99.90;;;;;;5106667;27;20354;-83
2023/07/28 07:05:10;;;;;;;10.98;8.55;;;18.30;99.90;;;;;;5107578;27;20058;-81
2023/07/28 07:07:36;;;;;;;9.38;8.25;;;18.30;99.90;;;;;;5100443;27;20439;-82
2023/07/28 07:10:02;;;;;;;9.75;8.30;;;18.30;99.90;;;;;;5104463;27;20170;-81
2023/07/28 07:12:28;;;;;;;9.20;8.27;;;18.40;99.90;;;;;;5092222;27;20074;-82
2023/07/28 07:14:54;;;;;;;12.18;9.10;;;18.40;99.90;;;;;;5106131;27;20039;-81
2023/07/28 07:17:20;;;;;;;9.70;8.45;;;18.40;99.90;;;;;;5109409;27;20044;-81
2023/07/28 07:19:45;;;;;;;11.52;9.32;;;18.40;99.90;;;;;;5104188;27;20565;-81
2023/07/28 07:22:11;;;;;;;13.65;9.15;;;18.40;99.90;;;;;;5106961;27;20070;-81
2023/07/28 07:24:37;;;;;;;12.52;9.60;;;18.50;99.90;;;;;;5100662;27;20142;-81
2023/07/28 07:27:03;;;;;;;11.85;8.75;;;18.50;99.90;;;;;;5095351;27;20151;-84
2023/07/28 07:29:29;;;;;;;10.80;8.05;;;18.50;99.90;;;;;;5080358;27;20043;-81
2023/07/28 07:31:56;;;;;;;8.57;7.10;;;18.50;99.90;;;;;;5095466;27;20400;-79
2023/07/28 07:34:23;;;;;;;8.20;7.10;;;18.60;99.90;;;;;;5109428;27;20125;-77
2023/07/28 07:36:49;;;;;;;7.60;6.85;;;18.60;99.90;;;;;;5100793;27;20063;-76
2023/07/28 07:39:15;;;;;;;7.80;7.10;;;18.70;99.90;;;;;;5111737;27;20351;-77
2023/07/28 07:41:41;;;;;;;7.13;6.40;;;18.70;99.90;;;;;;5110600;27;20325;-77
2023/07/28 07:44:07;;;;;;;7.95;6.45;;;18.70;99.90;;;;;;5110872;27;21567;-76
2023/07/28 07:46:32;;;;;;;7.95;6.13;;;18.80;99.90;;;;;;5094947;27;20061;-77
2023/07/28 07:48:58;;;;;;;8.52;7.22;;;18.80;99.90;;;;;;5094486;27;20493;-77
2023/07/28 07:51:24;;;;;;;8.65;7.43;;;18.90;99.90;;;;;;5098554;27;20528;-76
2023/07/28 07:53:50;;;;;;;8.38;7.53;;;18.90;99.90;;;;;;5097080;27;20097;-78
2023/07/28 07:56:16;;;;;;;8.40;6.82;;;19.00;99.90;;;;;;5110390;27;21316;-79
2023/07/28 07:58:42;;;;;;;7.80;7.00;;;19.10;99.90;;;;;;5111593;27;20078;-77
2023/07/28 08:01:08;;;;;;;6.78;6.18;;;19.30;99.90;;;;;;5111784;27;20059;-77
2023/07/28 08:03:37;;;;;;;8.45;7.22;;;19.60;99.90;;;;;;5108413;27;20047;-78
2023/07/28 08:06:03;;;;;;;7.32;6.57;;;19.90;99.90;;;;;;5092992;27;20046;-79
2023/07/28 08:08:29;;;;;;;7.15;6.45;;;20.00;99.90;;;;;;5108650;27;20039;-75
2023/07/28 08:10:56;;;;;;;6.82;6.10;;;20.20;99.90;;;;;;5097595;27;20042;-75
2023/07/28 08:13:22;;;;;;;7.38;6.10;;;20.30;99.90;;;;;;5095279;27;20526;-80
2023/07/28 08:15:47;;;;;;;6.63;5.90;;;20.30;99.90;;;;;;5112955;27;20754;-75
2023/07/28 08:18:13;;;;;;;7.60;6.32;;;20.40;99.90;;;;;;5091210;27;20062;-77
2023/07/28 08:20:40;;;;;;;6.95;6.22;;;20.40;99.90;;;;;;5094644;27;20092;-79
2023/07/28 08:23:05;;;;;;;8.73;6.72;;;20.40;99.90;;;;;;5091255;27;20053;-79
2023/07/28 08:25:31;;;;;;;10.55;6.30;;;20.50;99.90;;;;;;5108526;27;20055;-79
2023/07/28 08:27:57;;;;;;;6.80;6.20;;;20.40;99.90;;;;;;5106573;27;20490;-82
2023/07/28 08:30:23;;;;;;;6.38;5.78;;;20.50;99.90;;;;;;5112580;27;20174;-84
2023/07/28 08:32:49;;;;;;;7.20;6.38;;;20.50;99.90;;;;;;5123058;27;20187;-84
2023/07/28 08:35:15;;;;;;;8.65;6.20;;;20.60;99.90;;;;;;5091135;27;20046;-84
2023/07/28 08:37:41;;;;;;;6.90;6.20;;;20.70;99.90;;;;;;5094449;27;20513;-85
2023/07/28 08:40:07;;;;;;;9.80;7.00;;;20.80;99.90;;;;;;5107967;27;20061;-85
2023/07/28 08:42:38;;;;;;;8.73;5.65;;;20.80;99.90;;;;;;5112076;27;20047;-86
2023/07/28 08:45:05;;;;;;;7.90;5.97;;;20.80;99.90;;;;;;5108361;27;20053;-82
2023/07/28 08:47:33;;;;;;;9.75;6.22;;;20.90;99.90;;;;;;5112199;27;20039;-83
2023/07/28 08:49:58;;;;;;;5.78;5.28;;;21.00;99.90;;;;;;5078801;27;20085;-84
2023/07/28 08:52:24;;;;;;;5.78;4.60;;;21.20;99.90;;;;;;5075938;27;20126;-83
2023/07/28 08:54:51;;;;;;;5.90;4.70;;;21.30;99.90;;;;;;5124393;27;20681;-79
2023/07/28 08:57:16;;;;;;;5.32;4.82;;;21.30;99.90;;;;;;5106973;27;20047;-79
2023/07/28 08:59:47;;;;;;;6.60;5.32;;;21.30;99.90;;;;;;5094769;27;20681;-79
2023/07/28 09:02:16;;;;;;;6.28;5.38;;;21.30;99.90;;;;;;5109416;27;20612;-78
2023/07/28 09:04:43;;;;;;;7.55;6.03;;;21.20;99.90;;;;;;5109388;27;20039;-78
2023/07/28 09:07:09;;;;;;;6.47;5.28;;;21.10;99.90;;;;;;5088228;27;20142;-78
2023/07/28 09:09:36;;;;;;;7.32;5.13;;;21.10;99.90;;;;;;5105228;27;20049;-77
2023/07/28 09:12:03;;;;;;;6.20;5.03;;;21.20;99.90;;;;;;5103354;27;20066;-79
2023/07/28 09:14:30;;;;;;;5.50;4.20;;;21.30;99.90;;;;;;5107240;27;20051;-78
2023/07/28 09:16:56;;;;;;;7.05;4.35;;;21.60;99.90;;;;;;5080529;27;20046;-78
2023/07/28 09:19:22;;;;;;;6.57;4.10;;;22.00;99.90;;;;;;5107515;27;20064;-77
2023/07/28 09:21:59;;;;;;;5.18;4.35;;;22.40;99.90;;;;;;5104623;27;20046;-78
2023/07/28 09:24:32;;;;;;;5.57;4.10;;;22.80;99.60;;;;;;5094817;27;20047;-78
2023/07/28 09:26:58;;;;;;;5.20;4.35;;;23.00;98.40;;;;;;5096279;27;20085;-78
2023/07/28 09:29:27;;;;;;;6.03;4.40;;;22.90;97.30;;;;;;5074678;27;20047;-79
2023/07/28 09:32:02;;;;;;;4.50;3.90;;;22.80;96.50;;;;;;5110675;27;20047;-80
2023/07/28 09:34:28;;;;;;;5.38;3.95;;;23.00;96.70;;;;;;5089832;27;20054;-80
2023/07/28 09:36:55;;;;;;;4.63;4.22;;;23.30;96.40;;;;;;5092325;27;20086;-78
2023/07/28 09:39:21;;;;;;;5.18;3.60;;;23.50;95.50;;;;;;5093174;27;20042;-79
2023/07/28 09:41:57;;;;;;;5.68;4.15;;;23.80;94.90;;;;;;5102861;27;20130;-79
2023/07/28 09:44:23;;;;;;;5.05;4.53;;;24.00;94.30;;;;;;5101364;27;20087;-79
2023/07/28 09:46:56;;;;;;;8.48;4.70;;;24.10;92.60;;;;;;5105133;27;20039;-77
2023/07/28 09:49:29;;;;;;;5.75;4.60;;;24.10;91.40;;;;;;5110109;27;20051;-79
2023/07/28 09:51:59;;;;;;;5.40;4.00;;;24.20;90.60;;;;;;5122412;27;20120;-83
2023/07/28 09:54:29;;;;;;;5.25;4.50;;;24.30;91.10;;;;;;5102687;27;20039;-78
2023/07/28 09:56:57;;;;;;;6.88;4.68;;;24.40;90.30;;;;;;5104375;27;20054;-78
2023/07/28 09:59:37;;;;;;;7.07;5.30;;;24.40;90.20;;;;;;5103745;27;20051;-77
2023/07/28 10:02:03;;;;;;;4.90;4.07;;;24.50;89.30;;;;;;5098037;27;20058;-76
2023/07/28 10:04:30;;;;;;;5.75;3.83;;;24.60;89.30;;;;;;5091981;27;20851;-80
2023/07/28 10:06:56;;;;;;;5.93;3.85;;;24.70;87.70;;;;;;5108956;27;20070;-83
2023/07/28 10:09:28;;;;;;;5.13;4.20;;;24.70;86.80;;;;;;5102960;27;20588;-81
2023/07/28 10:11:55;;;;;;;4.53;4.05;;;24.60;84.40;;;;;;5089889;27;20053;-80
2023/07/28 10:14:37;;;;;;;4.63;4.00;;;24.50;84.80;;;;;;5090694;27;20588;-80
2023/07/28 10:17:05;;;;;;;4.78;4.10;;;24.20;80.30;;;;;;5094592;27;20127;-78
2023/07/28 10:19:35;;;;;;;4.30;3.90;;;24.20;84.50;;;;;;5108065;27;20062;-80
2023/07/28 10:22:09;;;;;;;5.93;3.70;;;24.20;84.00;;;;;;5107507;27;20512;-78
2023/07/28 10:24:55;;;;;;;4.95;3.90;;;24.20;83.00;;;;;;5097180;27;20303;-75
2023/07/28 10:27:45;;;;;;;4.97;3.90;;;24.30;83.80;;;;;;5105741;27;20043;-76
2023/07/28 10:30:13;;;;;;;4.82;4.00;;;24.10;84.30;;;;;;5106262;27;20151;-77
2023/07/28 10:32:41;;;;;;;4.75;3.30;;;24.00;85.80;;;;;;5108517;27;20129;-80
2023/07/28 10:35:10;;;;;;;6.68;3.95;;;24.20;87.20;;;;;;5105460;27;20402;-81
2023/07/28 10:37:36;;;;;;;5.88;3.20;;;24.20;85.80;;;;;;5101729;27;20054;-84
2023/07/28 10:40:27;;;;;;;5.40;3.55;;;24.30;85.00;;;;;;5106294;27;20539;-86
2023/07/28 10:42:54;;;;;;;5.10;3.00;;;24.30;80.20;;;;;;5127286;27;20101;-80
2023/07/28 10:45:20;;;;;;;4.93;2.63;;;24.20;82.70;;;;;;5095440;27;20050;-82
2023/07/28 10:47:47;;;;;;;3.85;2.78;;;24.30;83.20;;;;;;5110142;27;20047;-86
2023/07/28 10:50:13;;;;;;;5.78;3.53;;;24.40;81.00;;;;;;5110162;27;20049;-86
2023/07/28 10:52:41;;;;;;;4.60;3.08;;;24.70;80.10;;;;;;5098773;27;20054;-81
2023/07/28 10:55:18;;;;;;;3.47;2.60;;;24.90;77.70;;;;;;5095360;27;20256;-84
2023/07/28 10:57:45;;;;;;;3.97;2.30;;;25.10;70.20;;;;;;5120482;27;20050;-85
2023/07/28 11:00:12;;;;;;;3.95;2.15;;;25.30;70.70;;;;;;5112787;27;20374;-82
2023/07/28 11:02:45;;;;;;;3.22;1.85;;;25.20;66.20;;;;;;5111777;27;20043;-87
2023/07/28 11:05:27;;;;;;;5.50;2.50;;;25.20;61.60;;;;;;5104403;27;20763;-84
2023/07/28 11:08:01;;;;;;;4.57;1.98;;;25.20;58.30;;;;;;5105901;27;20058;-85
2023/07/28 11:10:32;;;;;;;3.92;2.35;;;25.00;58.40;;;;;;5106654;27;20054;-84
2023/07/28 11:13:00;;;;;;;4.53;2.35;;;25.00;61.70;;;;;;5107765;27;20562;-83
2023/07/28 11:15:26;;;;;;;2.63;2.15;;;25.00;60.10;;;;;;5108620;27;20042;-82
2023/07/28 11:17:52;;;;;;;3.38;1.83;;;25.10;57.80;;;;;;5090684;27;20047;-83
2023/07/28 11:20:23;;;;;;;2.75;1.90;;;25.10;56.30;;;;;;5108184;27;20043;-85
2023/07/28 11:22:54;;;;;;;2.58;1.70;;;25.20;54.90;;;;;;5093454;27;20138;-85
2023/07/28 11:25:23;;;;;;;2.30;1.70;;;25.40;51.80;;;;;;5100070;27;20051;-87
2023/07/28 11:27:51;;;;;;;3.15;1.77;;;25.30;51.20;;;;;;5099498;27;20513;-86
2023/07/28 11:30:18;;;;;;;2.25;1.70;;;25.10;52.40;;;;;;5109244;27;20042;-80
2023/07/28 11:32:46;;;;;;;2.80;1.60;;;24.90;51.30;;;;;;5107990;27;20041;-85
2023/07/28 11:35:13;;;;;;;2.97;1.88;;;24.70;53.20;;;;;;5090371;27;20054;-81
2023/07/28 11:37:41;;;;;;;3.80;1.98;;;24.70;54.20;;;;;;5096396;27;20050;-86
2023/07/28 11:40:10;;;;;;;2.58;1.70;;;24.90;52.50;;;;;;5098697;27;20133;-85
2023/07/28 11:42:48;;;;;;;2.60;1.85;;;25.10;50.40;;;;;;5105769;27;20140;-78
2023/07/28 11:45:16;;;;;;;4.07;2.13;;;25.10;45.70;;;;;;5109567;27;20393;-78
2023/07/28 11:47:59;;;;;;;3.55;1.73;;;25.10;43.60;;;;;;5127660;27;20050;-78
2023/07/28 11:50:34;;;;;;;3.80;2.00;;;25.40;46.00;;;;;;5111995;27;20170;-78
2023/07/28 11:53:00;;;;;;;2.70;1.70;;;25.80;42.00;;;;;;5103785;27;20062;-79
2023/07/28 11:55:26;;;;;;;4.72;2.40;;;25.90;36.10;;;;;;5114021;27;20046;-80
2023/07/28 11:57:53;;;;;;;4.50;2.15;;;25.60;31.90;;;;;;5135279;27;20043;-77
2023/07/28 12:00:26;;;;;;;3.22;2.20;;;25.20;32.70;;;;;;5099724;27;20118;-80
2023/07/28 12:03:20;;;;;;;2.97;2.38;;;25.20;35.70;;;;;;5098493;27;20058;-77
2023/07/28 12:06:06;;;;;;;3.03;2.05;;;25.30;35.90;;;;;;5112698;27;20192;-82
2023/07/28 12:08:38;;;;;;;;;;;25.30;31.60;;;;;;5106051;27;20046;-76
2023/07/28 12:11:04;;;;;;;3.40;2.10;;;25.50;39.30;;;;;;5116868;27;19943;-80
2023/07/28 12:13:30;;;;;;;2.38;1.83;;;25.70;34.70;;;;;;5117992;27;20047;-79
2023/07/28 12:15:56;;;;;;;2.78;2.20;;;25.80;28.40;;;;;;5104180;27;20122;-81
2023/07/28 12:18:23;;;;;;;2.75;2.03;;;25.80;22.70;;;;;;5072181;27;20043;-80
2023/07/28 12:20:53;;;;;;;4.20;2.15;;;25.70;21.90;;;;;;5136795;27;20128;-78
2023/07/28 12:23:20;;;;;;;3.47;2.15;;;25.70;24.10;;;;;;5106584;27;20053;-81
2023/07/28 12:25:47;;;;;;;2.83;2.15;;;25.90;23.90;;;;;;5116675;27;20090;-82
2023/07/28 12:28:13;;;;;;;3.00;2.05;;;25.60;20.10;;;;;;5105017;27;20046;-78
2023/07/28 12:30:39;;;;;;;2.65;1.90;;;25.70;23.80;;;;;;5099041;27;20581;-80
2023/07/28 12:33:05;;;;;;;4.25;2.20;;;26.00;25.20;;;;;;5115594;27;20043;-76
2023/07/28 12:35:34;;;;;;;4.50;2.10;;;26.30;22.90;;;;;;5098075;27;20170;-76
2023/07/28 12:38:05;;;;;;;3.35;1.98;;;26.30;19.90;;;;;;5093493;27;20049;-75
2023/07/28 12:40:32;;;;;;;3.65;2.33;;;26.60;19.80;;;;;;5109304;27;20137;-76
2023/07/28 12:42:59;;;;;;;2.75;2.08;;;26.90;15.60;;;;;;5097561;27;20051;-74